sensor_id;sensor_type;location;lat;lon;timestamp;temperature;humidity
52513;DHT22;38422;53.172;6.974;2022-12-07T00:03:42;4.10;99.90
52513;DHT22;38422;53.172;6.974;2022-12-07T00:06:08;4.10;99.90
52513;DHT22;38422;53.172;6.974;2022-12-07T00:08:35;4.10;99.90
52513;DHT22;38422;53.172;6.974;2022-12-07T00:11:03;4.10;99.90
52513;DHT22;38422;53.172;6.974;2022-12-07T00:13:30;4.10;99.90
52513;DHT22;38422;53.172;6.974;2022-12-07T00:15:56;4.10;99.90
52513;DHT22;38422;53.172;6.974;2022-12-07T00:18:24;4.10;99.90
52513;DHT22;38422;53.172;6.974;2022-12-07T00:20:50;4.20;99.90
52513;DHT22;38422;53.172;6.974;2022-12-07T00:23:16;4.20;99.90
52513;DHT22;38422;53.172;6.974;2022-12-07T00:25:41;4.20;99.90
52513;DHT22;38422;53.172;6.974;2022-12-07T00:28:07;4.20;99.90
52513;DHT22;38422;53.172;6.974;2022-12-07T00:30:34;4.20;99.90
52513;DHT22;38422;53.172;6.974;2022-12-07T00:33:00;4.20;99.90
52513;DHT22;38422;53.172;6.974;2022-12-07T00:35:26;4.20;99.90
52513;DHT22;38422;53.172;6.974;2022-12-07T00:37:51;4.20;99.90
52513;DHT22;38422;53.172;6.974;2022-12-07T00:40:17;4.20;99.90
52513;DHT22;38422;53.172;6.974;2022-12-07T00:42:43;4.20;99.90
52513;DHT22;38422;53.172;6.974;2022-12-07T00:45:09;4.20;99.90
52513;DHT22;38422;53.172;6.974;2022-12-07T00:47:34;4.30;99.90
52513;DHT22;38422;53.172;6.974;2022-12-07T00:50:00;4.30;99.90
52513;DHT22;38422;53.172;6.974;2022-12-07T00:52:25;4.30;99.90
52513;DHT22;38422;53.172;6.974;2022-12-07T00:54:51;4.30;99.90
52513;DHT22;38422;53.172;6.974;2022-12-07T00:57:17;4.30;99.90
52513;DHT22;38422;53.172;6.974;2022-12-07T00:59:43;4.40;99.90
52513;DHT22;38422;53.172;6.974;2022-12-07T01:02:08;4.40;99.90
52513;DHT22;38422;53.172;6.974;2022-12-07T01:04:34;4.40;99.90
52513;DHT22;38422;53.172;6.974;2022-12-07T01:07:00;4.40;99.90
52513;DHT22;38422;53.172;6.974;2022-12-07T01:09:26;4.40;99.90
52513;DHT22;38422;53.172;6.974;2022-12-07T01:11:51;4.40;99.90
52513;DHT22;38422;53.172;6.974;2022-12-07T01:14:17;4.40;99.90
52513;DHT22;38422;53.172;6.974;2022-12-07T01:16:43;4.50;99.90
52513;DHT22;38422;53.172;6.974;2022-12-07T01:19:08;4.50;99.90
52513;DHT22;38422;53.172;6.974;2022-12-07T01:21:35;4.50;99.90
52513;DHT22;38422;53.172;6.974;2022-12-07T01:24:04;4.50;99.90
52513;DHT22;38422;53.172;6.974;2022-12-07T01:26:31;4.40;99.90
52513;DHT22;38422;53.172;6.974;2022-12-07T01:28:56;4.40;99.90
52513;DHT22;38422;53.172;6.974;2022-12-07T01:31:26;4.50;99.90
52513;DHT22;38422;53.172;6.974;2022-12-07T01:33:54;4.50;99.90
52513;DHT22;38422;53.172;6.974;2022-12-07T01:36:29;4.50;99.90
52513;DHT22;38422;53.172;6.974;2022-12-07T01:38:57;4.50;99.90
52513;DHT22;38422;53.172;6.974;2022-12-07T01:41:25;4.50;99.90
52513;DHT22;38422;53.172;6.974;2022-12-07T01:46:36;4.50;99.90
52513;DHT22;38422;53.172;6.974;2022-12-07T01:49:04;4.50;99.90
52513;DHT22;38422;53.172;6.974;2022-12-07T01:51:30;4.50;99.90
52513;DHT22;38422;53.172;6.974;2022-12-07T01:53:56;4.50;99.90
52513;DHT22;38422;53.172;6.974;2022-12-07T01:56:25;4.50;99.90
52513;DHT22;38422;53.172;6.974;2022-12-07T01:58:52;4.50;99.90
52513;DHT22;38422;53.172;6.974;2022-12-07T02:01:20;4.50;99.90
52513;DHT22;38422;53.172;6.974;2022-12-07T02:03:47;4.50;99.90
52513;DHT22;38422;53.172;6.974;2022-12-07T02:06:18;4.50;99.90
52513;DHT22;38422;53.172;6.974;2022-12-07T02:08:45;4.50;99.90
52513;DHT22;38422;53.172;6.974;2022-12-07T02:11:11;4.50;99.90
52513;DHT22;38422;53.172;6.974;2022-12-07T02:13:39;4.50;99.90
52513;DHT22;38422;53.172;6.974;2022-12-07T02:16:31;4.60;99.90
52513;DHT22;38422;53.172;6.974;2022-12-07T02:22:01;4.50;99.90
52513;DHT22;38422;53.172;6.974;2022-12-07T02:30:10;4.50;99.90
52513;DHT22;38422;53.172;6.974;2022-12-07T02:32:45;4.40;99.90
52513;DHT22;38422;53.172;6.974;2022-12-07T02:37:59;4.40;99.90
52513;DHT22;38422;53.172;6.974;2022-12-07T02:43:06;4.40;99.90
52513;DHT22;38422;53.172;6.974;2022-12-07T02:45:36;4.40;99.90
52513;DHT22;38422;53.172;6.974;2022-12-07T02:48:04;4.30;99.90
52513;DHT22;38422;53.172;6.974;2022-12-07T02:50:30;4.30;99.90
52513;DHT22;38422;53.172;6.974;2022-12-07T02:52:55;4.30;99.90
52513;DHT22;38422;53.172;6.974;2022-12-07T02:55:28;4.20;99.90
52513;DHT22;38422;53.172;6.974;2022-12-07T03:01:04;4.10;99.90
52513;DHT22;38422;53.172;6.974;2022-12-07T03:03:31;4.10;99.90
52513;DHT22;38422;53.172;6.974;2022-12-07T03:06:43;4.10;99.90
52513;DHT22;38422;53.172;6.974;2022-12-07T03:09:20;4.10;99.90
52513;DHT22;38422;53.172;6.974;2022-12-07T03:11:52;4.10;99.90
52513;DHT22;38422;53.172;6.974;2022-12-07T03:14:34;4.10;99.90
52513;DHT22;38422;53.172;6.974;2022-12-07T03:17:12;4.10;99.90
52513;DHT22;38422;53.172;6.974;2022-12-07T03:19:41;4.10;99.90
52513;DHT22;38422;53.172;6.974;2022-12-07T03:22:10;4.10;99.90
52513;DHT22;38422;53.172;6.974;2022-12-07T03:24:47;4.10;99.90
52513;DHT22;38422;53.172;6.974;2022-12-07T03:29:51;4.10;99.90
52513;DHT22;38422;53.172;6.974;2022-12-07T03:37:40;4.20;99.90
52513;DHT22;38422;53.172;6.974;2022-12-07T03:40:15;4.20;99.90
52513;DHT22;38422;53.172;6.974;2022-12-07T03:42:43;4.20;99.90
52513;DHT22;38422;53.172;6.974;2022-12-07T03:45:10;4.20;99.90
52513;DHT22;38422;53.172;6.974;2022-12-07T03:47:47;4.20;99.90
52513;DHT22;38422;53.172;6.974;2022-12-07T03:50:38;4.10;99.90
52513;DHT22;38422;53.172;6.974;2022-12-07T03:53:27;4.10;99.90
52513;DHT22;38422;53.172;6.974;2022-12-07T03:55:56;4.10;99.90
52513;DHT22;38422;53.172;6.974;2022-12-07T03:58:23;4.00;99.90
52513;DHT22;38422;53.172;6.974;2022-12-07T04:00:50;4.00;99.90
52513;DHT22;38422;53.172;6.974;2022-12-07T04:03:16;4.00;99.90
52513;DHT22;38422;53.172;6.974;2022-12-07T04:05:42;4.00;99.90
52513;DHT22;38422;53.172;6.974;2022-12-07T04:08:08;4.00;99.90
52513;DHT22;38422;53.172;6.974;2022-12-07T04:10:34;4.00;99.90
52513;DHT22;38422;53.172;6.974;2022-12-07T04:13:00;4.00;99.90
52513;DHT22;38422;53.172;6.974;2022-12-07T04:15:26;4.00;99.90
52513;DHT22;38422;53.172;6.974;2022-12-07T04:17:52;4.10;99.90
52513;DHT22;38422;53.172;6.974;2022-12-07T04:20:18;4.00;99.90
52513;DHT22;38422;53.172;6.974;2022-12-07T04:22:43;4.00;99.90
52513;DHT22;38422;53.172;6.974;2022-12-07T04:25:09;4.00;99.90
52513;DHT22;38422;53.172;6.974;2022-12-07T04:27:35;4.00;99.90
52513;DHT22;38422;53.172;6.974;2022-12-07T04:30:01;4.00;99.90
52513;DHT22;38422;53.172;6.974;2022-12-07T04:32:27;4.00;99.90
52513;DHT22;38422;53.172;6.974;2022-12-07T04:34:52;3.90;99.90
52513;DHT22;38422;53.172;6.974;2022-12-07T04:37:18;3.90;99.90
52513;DHT22;38422;53.172;6.974;2022-12-07T04:39:43;3.90;99.90
52513;DHT22;38422;53.172;6.974;2022-12-07T04:42:12;3.90;99.90
52513;DHT22;38422;53.172;6.974;2022-12-07T04:44:38;3.90;99.90
52513;DHT22;38422;53.172;6.974;2022-12-07T04:47:04;3.90;99.90
52513;DHT22;38422;53.172;6.974;2022-12-07T04:49:30;3.80;99.90
52513;DHT22;38422;53.172;6.974;2022-12-07T04:51:55;3.80;99.90
52513;DHT22;38422;53.172;6.974;2022-12-07T04:54:21;3.90;99.90
52513;DHT22;38422;53.172;6.974;2022-12-07T04:56:47;3.90;99.90
52513;DHT22;38422;53.172;6.974;2022-12-07T04:59:14;3.90;99.90
52513;DHT22;38422;53.172;6.974;2022-12-07T05:01:40;3.90;99.90
52513;DHT22;38422;53.172;6.974;2022-12-07T05:04:07;3.90;99.90
52513;DHT22;38422;53.172;6.974;2022-12-07T05:06:33;3.90;99.90
52513;DHT22;38422;53.172;6.974;2022-12-07T05:08:59;3.90;99.90
52513;DHT22;38422;53.172;6.974;2022-12-07T05:11:24;3.90;99.90
52513;DHT22;38422;53.172;6.974;2022-12-07T05:14:17;3.90;99.90
52513;DHT22;38422;53.172;6.974;2022-12-07T05:16:44;3.90;99.90
52513;DHT22;38422;53.172;6.974;2022-12-07T05:19:10;4.00;99.90
52513;DHT22;38422;53.172;6.974;2022-12-07T05:21:37;4.00;99.90
52513;DHT22;38422;53.172;6.974;2022-12-07T05:24:03;4.00;99.90
52513;DHT22;38422;53.172;6.974;2022-12-07T05:26:29;4.00;99.90
52513;DHT22;38422;53.172;6.974;2022-12-07T05:28:56;4.00;99.90
52513;DHT22;38422;53.172;6.974;2022-12-07T05:31:22;3.90;99.90
52513;DHT22;38422;53.172;6.974;2022-12-07T05:33:49;3.90;99.90
52513;DHT22;38422;53.172;6.974;2022-12-07T05:36:14;3.90;99.90
52513;DHT22;38422;53.172;6.974;2022-12-07T05:38:40;3.80;99.90
52513;DHT22;38422;53.172;6.974;2022-12-07T05:41:07;3.80;99.90
52513;DHT22;38422;53.172;6.974;2022-12-07T05:43:53;3.80;99.90
52513;DHT22;38422;53.172;6.974;2022-12-07T05:46:19;3.70;99.90
52513;DHT22;38422;53.172;6.974;2022-12-07T05:48:45;3.70;99.90
52513;DHT22;38422;53.172;6.974;2022-12-07T05:51:10;3.70;99.90
52513;DHT22;38422;53.172;6.974;2022-12-07T05:53:36;3.60;99.90
52513;DHT22;38422;53.172;6.974;2022-12-07T05:56:02;3.60;99.90
52513;DHT22;38422;53.172;6.974;2022-12-07T05:58:27;3.60;99.90
52513;DHT22;38422;53.172;6.974;2022-12-07T06:01:11;3.60;99.90
52513;DHT22;38422;53.172;6.974;2022-12-07T06:03:37;3.60;99.90
52513;DHT22;38422;53.172;6.974;2022-12-07T06:06:03;3.60;99.90
52513;DHT22;38422;53.172;6.974;2022-12-07T06:08:28;3.60;99.90
52513;DHT22;38422;53.172;6.974;2022-12-07T06:10:54;3.60;99.90
52513;DHT22;38422;53.172;6.974;2022-12-07T06:13:40;3.60;99.90
52513;DHT22;38422;53.172;6.974;2022-12-07T06:16:06;3.70;99.90
52513;DHT22;38422;53.172;6.974;2022-12-07T06:18:31;3.70;99.90
52513;DHT22;38422;53.172;6.974;2022-12-07T06:20:57;3.70;99.90
52513;DHT22;38422;53.172;6.974;2022-12-07T06:23:23;3.70;99.90
52513;DHT22;38422;53.172;6.974;2022-12-07T06:25:48;3.70;99.90
52513;DHT22;38422;53.172;6.974;2022-12-07T06:28:14;3.70;99.90
52513;DHT22;38422;53.172;6.974;2022-12-07T06:30:40;3.60;99.90
52513;DHT22;38422;53.172;6.974;2022-12-07T06:33:05;3.60;99.90
52513;DHT22;38422;53.172;6.974;2022-12-07T06:35:33;3.60;99.90
52513;DHT22;38422;53.172;6.974;2022-12-07T06:37:58;3.60;99.90
52513;DHT22;38422;53.172;6.974;2022-12-07T06:40:24;3.60;99.90
52513;DHT22;38422;53.172;6.974;2022-12-07T06:42:50;3.60;99.90
52513;DHT22;38422;53.172;6.974;2022-12-07T06:45:16;3.60;99.90
52513;DHT22;38422;53.172;6.974;2022-12-07T06:47:41;3.60;99.90
52513;DHT22;38422;53.172;6.974;2022-12-07T06:50:07;3.60;99.90
52513;DHT22;38422;53.172;6.974;2022-12-07T06:52:34;3.70;99.90
52513;DHT22;38422;53.172;6.974;2022-12-07T06:54:59;3.60;99.90
52513;DHT22;38422;53.172;6.974;2022-12-07T06:57:26;3.60;99.90
52513;DHT22;38422;53.172;6.974;2022-12-07T06:59:51;3.60;99.90
52513;DHT22;38422;53.172;6.974;2022-12-07T07:02:17;3.60;99.90
52513;DHT22;38422;53.172;6.974;2022-12-07T07:04:43;3.60;99.90
52513;DHT22;38422;53.172;6.974;2022-12-07T07:07:09;3.60;99.90
52513;DHT22;38422;53.172;6.974;2022-12-07T07:09:34;3.50;99.90
52513;DHT22;38422;53.172;6.974;2022-12-07T07:12:00;3.50;99.90
52513;DHT22;38422;53.172;6.974;2022-12-07T07:14:26;3.50;99.90
52513;DHT22;38422;53.172;6.974;2022-12-07T07:16:52;3.40;99.90
52513;DHT22;38422;53.172;6.974;2022-12-07T07:19:17;3.40;99.90
52513;DHT22;38422;53.172;6.974;2022-12-07T07:21:43;3.40;99.90
52513;DHT22;38422;53.172;6.974;2022-12-07T07:24:09;3.30;99.90
52513;DHT22;38422;53.172;6.974;2022-12-07T07:26:35;3.30;99.90
52513;DHT22;38422;53.172;6.974;2022-12-07T07:29:01;3.20;99.90
52513;DHT22;38422;53.172;6.974;2022-12-07T07:31:27;3.20;99.90
52513;DHT22;38422;53.172;6.974;2022-12-07T07:33:53;3.20;99.90
52513;DHT22;38422;53.172;6.974;2022-12-07T07:36:18;3.10;99.90
52513;DHT22;38422;53.172;6.974;2022-12-07T07:38:44;3.10;99.90
52513;DHT22;38422;53.172;6.974;2022-12-07T07:41:10;3.10;99.90
52513;DHT22;38422;53.172;6.974;2022-12-07T07:43:35;3.10;99.90
52513;DHT22;38422;53.172;6.974;2022-12-07T07:46:01;3.10;99.90
52513;DHT22;38422;53.172;6.974;2022-12-07T07:48:26;3.10;99.90
52513;DHT22;38422;53.172;6.974;2022-12-07T07:50:52;3.20;99.90
52513;DHT22;38422;53.172;6.974;2022-12-07T07:53:18;3.20;99.90
52513;DHT22;38422;53.172;6.974;2022-12-07T07:55:51;3.20;99.90
52513;DHT22;38422;53.172;6.974;2022-12-07T07:58:17;3.20;99.90
52513;DHT22;38422;53.172;6.974;2022-12-07T08:00:43;3.30;99.90
52513;DHT22;38422;53.172;6.974;2022-12-07T08:03:09;3.30;99.90
52513;DHT22;38422;53.172;6.974;2022-12-07T08:05:36;3.30;99.90
52513;DHT22;38422;53.172;6.974;2022-12-07T08:08:02;3.40;99.90
52513;DHT22;38422;53.172;6.974;2022-12-07T08:10:28;3.40;99.90
52513;DHT22;38422;53.172;6.974;2022-12-07T08:12:54;3.40;99.90
52513;DHT22;38422;53.172;6.974;2022-12-07T08:15:39;3.50;99.90
52513;DHT22;38422;53.172;6.974;2022-12-07T08:18:06;3.50;99.90
52513;DHT22;38422;53.172;6.974;2022-12-07T08:20:33;3.50;99.90
52513;DHT22;38422;53.172;6.974;2022-12-07T08:23:00;3.60;99.90
52513;DHT22;38422;53.172;6.974;2022-12-07T08:25:27;3.60;99.90
52513;DHT22;38422;53.172;6.974;2022-12-07T08:27:53;3.70;99.90
52513;DHT22;38422;53.172;6.974;2022-12-07T08:30:20;3.70;99.90
52513;DHT22;38422;53.172;6.974;2022-12-07T08:32:46;3.70;99.90
52513;DHT22;38422;53.172;6.974;2022-12-07T08:35:13;3.80;99.90
52513;DHT22;38422;53.172;6.974;2022-12-07T08:37:40;3.80;99.90
52513;DHT22;38422;53.172;6.974;2022-12-07T08:40:07;3.80;99.90
52513;DHT22;38422;53.172;6.974;2022-12-07T08:42:33;3.80;99.90
52513;DHT22;38422;53.172;6.974;2022-12-07T08:47:31;3.90;99.90
52513;DHT22;38422;53.172;6.974;2022-12-07T08:49:57;4.00;99.90
52513;DHT22;38422;53.172;6.974;2022-12-07T08:52:29;4.00;99.90
52513;DHT22;38422;53.172;6.974;2022-12-07T08:54:56;4.10;99.90
52513;DHT22;38422;53.172;6.974;2022-12-07T08:57:22;4.10;99.90
52513;DHT22;38422;53.172;6.974;2022-12-07T08:59:47;4.10;99.90
52513;DHT22;38422;53.172;6.974;2022-12-07T09:02:13;4.10;99.90
52513;DHT22;38422;53.172;6.974;2022-12-07T09:04:39;4.10;99.90
52513;DHT22;38422;53.172;6.974;2022-12-07T09:07:05;4.10;99.90
52513;DHT22;38422;53.172;6.974;2022-12-07T09:09:31;4.10;99.90
52513;DHT22;38422;53.172;6.974;2022-12-07T09:11:57;4.10;99.90
52513;DHT22;38422;53.172;6.974;2022-12-07T09:14:23;4.10;99.90
52513;DHT22;38422;53.172;6.974;2022-12-07T09:16:49;4.20;99.90
52513;DHT22;38422;53.172;6.974;2022-12-07T09:19:14;4.10;99.90
52513;DHT22;38422;53.172;6.974;2022-12-07T09:21:40;4.20;99.90
52513;DHT22;38422;53.172;6.974;2022-12-07T09:24:06;4.20;99.90
52513;DHT22;38422;53.172;6.974;2022-12-07T09:26:32;4.20;99.90
52513;DHT22;38422;53.172;6.974;2022-12-07T09:28:57;4.20;99.90
52513;DHT22;38422;53.172;6.974;2022-12-07T09:31:23;4.30;99.90
52513;DHT22;38422;53.172;6.974;2022-12-07T09:33:57;4.40;99.90
52513;DHT22;38422;53.172;6.974;2022-12-07T09:36:23;4.40;99.90
52513;DHT22;38422;53.172;6.974;2022-12-07T09:38:49;4.50;99.90
52513;DHT22;38422;53.172;6.974;2022-12-07T09:41:14;4.50;99.90
52513;DHT22;38422;53.172;6.974;2022-12-07T09:43:41;4.60;99.90
52513;DHT22;38422;53.172;6.974;2022-12-07T09:46:11;4.70;99.90
52513;DHT22;38422;53.172;6.974;2022-12-07T09:48:39;4.70;99.90
52513;DHT22;38422;53.172;6.974;2022-12-07T09:51:23;4.80;99.90
52513;DHT22;38422;53.172;6.974;2022-12-07T09:53:50;4.90;99.90
52513;DHT22;38422;53.172;6.974;2022-12-07T09:56:18;4.90;99.90
52513;DHT22;38422;53.172;6.974;2022-12-07T09:58:44;5.00;99.90
52513;DHT22;38422;53.172;6.974;2022-12-07T10:01:21;5.00;99.90
52513;DHT22;38422;53.172;6.974;2022-12-07T10:03:55;5.10;99.90
52513;DHT22;38422;53.172;6.974;2022-12-07T10:06:22;5.20;99.90
52513;DHT22;38422;53.172;6.974;2022-12-07T10:08:47;5.30;99.90
52513;DHT22;38422;53.172;6.974;2022-12-07T10:11:13;5.30;99.90
52513;DHT22;38422;53.172;6.974;2022-12-07T10:14:11;5.30;99.90
52513;DHT22;38422;53.172;6.974;2022-12-07T10:16:39;5.40;99.90
52513;DHT22;38422;53.172;6.974;2022-12-07T10:19:26;5.40;99.90
52513;DHT22;38422;53.172;6.974;2022-12-07T10:22:13;5.40;99.90
52513;DHT22;38422;53.172;6.974;2022-12-07T10:24:40;5.40;99.90
52513;DHT22;38422;53.172;6.974;2022-12-07T10:27:25;5.50;99.90
52513;DHT22;38422;53.172;6.974;2022-12-07T10:29:53;5.50;99.90
52513;DHT22;38422;53.172;6.974;2022-12-07T10:34:44;5.60;99.90
52513;DHT22;38422;53.172;6.974;2022-12-07T10:37:15;5.70;99.90
52513;DHT22;38422;53.172;6.974;2022-12-07T10:39:56;5.70;99.90
52513;DHT22;38422;53.172;6.974;2022-12-07T10:42:24;5.80;99.90
52513;DHT22;38422;53.172;6.974;2022-12-07T10:47:51;5.80;99.90
52513;DHT22;38422;53.172;6.974;2022-12-07T10:52:57;5.80;99.90
52513;DHT22;38422;53.172;6.974;2022-12-07T10:58:37;5.80;99.90
52513;DHT22;38422;53.172;6.974;2022-12-07T11:01:22;5.80;99.90
52513;DHT22;38422;53.172;6.974;2022-12-07T11:06:43;5.80;99.90
52513;DHT22;38422;53.172;6.974;2022-12-07T11:12:15;5.80;99.90
52513;DHT22;38422;53.172;6.974;2022-12-07T11:22:55;6.30;99.90
52513;DHT22;38422;53.172;6.974;2022-12-07T11:25:32;6.50;99.90
52513;DHT22;38422;53.172;6.974;2022-12-07T11:28:13;6.60;99.90
52513;DHT22;38422;53.172;6.974;2022-12-07T11:31:11;6.70;99.90
52513;DHT22;38422;53.172;6.974;2022-12-07T11:33:55;6.80;99.90
52513;DHT22;38422;53.172;6.974;2022-12-07T11:36:49;6.80;99.90
52513;DHT22;38422;53.172;6.974;2022-12-07T11:41:51;6.80;99.90
52513;DHT22;38422;53.172;6.974;2022-12-07T11:44:36;6.90;99.90
52513;DHT22;38422;53.172;6.974;2022-12-07T11:47:25;6.90;99.90
52513;DHT22;38422;53.172;6.974;2022-12-07T11:50:03;6.80;99.90
52513;DHT22;38422;53.172;6.974;2022-12-07T11:55:17;6.80;99.90
52513;DHT22;38422;53.172;6.974;2022-12-07T11:57:46;6.90;99.90
52513;DHT22;38422;53.172;6.974;2022-12-07T12:00:16;6.90;99.90
52513;DHT22;38422;53.172;6.974;2022-12-07T12:03:07;6.80;99.90
52513;DHT22;38422;53.172;6.974;2022-12-07T12:05:34;6.80;99.90
52513;DHT22;38422;53.172;6.974;2022-12-07T12:16:19;6.40;99.90
52513;DHT22;38422;53.172;6.974;2022-12-07T12:19:02;6.40;99.90
52513;DHT22;38422;53.172;6.974;2022-12-07T12:21:30;6.30;99.90
52513;DHT22;38422;53.172;6.974;2022-12-07T12:24:14;6.30;99.90
52513;DHT22;38422;53.172;6.974;2022-12-07T12:27:00;6.20;99.90
52513;DHT22;38422;53.172;6.974;2022-12-07T12:29:32;6.20;99.90
52513;DHT22;38422;53.172;6.974;2022-12-07T12:32:19;6.10;99.90
52513;DHT22;38422;53.172;6.974;2022-12-07T12:37:52;6.00;99.90
52513;DHT22;38422;53.172;6.974;2022-12-07T12:42:49;5.90;99.90
52513;DHT22;38422;53.172;6.974;2022-12-07T12:45:42;5.90;99.90
52513;DHT22;38422;53.172;6.974;2022-12-07T12:48:35;5.80;99.90
52513;DHT22;38422;53.172;6.974;2022-12-07T12:51:37;5.70;99.90
52513;DHT22;38422;53.172;6.974;2022-12-07T12:54:05;5.80;99.90
52513;DHT22;38422;53.172;6.974;2022-12-07T13:01:48;6.10;99.90
52513;DHT22;38422;53.172;6.974;2022-12-07T13:04:48;6.10;99.90
52513;DHT22;38422;53.172;6.974;2022-12-07T13:13:28;6.00;99.90
52513;DHT22;38422;53.172;6.974;2022-12-07T13:15:54;5.90;99.90
52513;DHT22;38422;53.172;6.974;2022-12-07T13:18:38;5.90;99.90
52513;DHT22;38422;53.172;6.974;2022-12-07T13:31:52;5.70;99.90
52513;DHT22;38422;53.172;6.974;2022-12-07T13:34:39;5.60;99.90
52513;DHT22;38422;53.172;6.974;2022-12-07T13:37:14;5.60;99.90
52513;DHT22;38422;53.172;6.974;2022-12-07T13:39:46;5.50;99.90
52513;DHT22;38422;53.172;6.974;2022-12-07T13:42:32;5.50;99.90
52513;DHT22;38422;53.172;6.974;2022-12-07T13:45:00;5.50;99.90
52513;DHT22;38422;53.172;6.974;2022-12-07T13:47:36;5.50;99.90
52513;DHT22;38422;53.172;6.974;2022-12-07T13:50:29;5.50;99.90
52513;DHT22;38422;53.172;6.974;2022-12-07T13:52:56;5.50;99.90
52513;DHT22;38422;53.172;6.974;2022-12-07T13:55:22;5.50;99.90
52513;DHT22;38422;53.172;6.974;2022-12-07T13:57:51;5.50;99.90
52513;DHT22;38422;53.172;6.974;2022-12-07T14:00:22;5.50;99.90
52513;DHT22;38422;53.172;6.974;2022-12-07T14:03:39;5.50;99.90
52513;DHT22;38422;53.172;6.974;2022-12-07T14:05:45;5.60;99.90
52513;DHT22;38422;53.172;6.974;2022-12-07T14:13:37;5.50;99.90
52513;DHT22;38422;53.172;6.974;2022-12-07T14:18:58;5.50;99.90
52513;DHT22;38422;53.172;6.974;2022-12-07T14:21:27;5.40;99.90
52513;DHT22;38422;53.172;6.974;2022-12-07T14:24:16;5.40;99.90
52513;DHT22;38422;53.172;6.974;2022-12-07T14:26:47;5.40;99.90
52513;DHT22;38422;53.172;6.974;2022-12-07T14:29:30;5.30;99.90
52513;DHT22;38422;53.172;6.974;2022-12-07T14:31:58;5.30;99.90
52513;DHT22;38422;53.172;6.974;2022-12-07T14:34:24;5.20;99.90
52513;DHT22;38422;53.172;6.974;2022-12-07T14:36:50;5.20;99.90
52513;DHT22;38422;53.172;6.974;2022-12-07T14:39:16;5.10;99.90
52513;DHT22;38422;53.172;6.974;2022-12-07T14:41:42;5.10;99.90
52513;DHT22;38422;53.172;6.974;2022-12-07T14:44:18;5.10;99.90
52513;DHT22;38422;53.172;6.974;2022-12-07T14:46:44;5.00;99.90
52513;DHT22;38422;53.172;6.974;2022-12-07T14:49:10;5.00;99.90
52513;DHT22;38422;53.172;6.974;2022-12-07T14:51:38;4.90;99.90
52513;DHT22;38422;53.172;6.974;2022-12-07T14:54:06;4.80;99.90
52513;DHT22;38422;53.172;6.974;2022-12-07T14:56:35;4.80;99.90
52513;DHT22;38422;53.172;6.974;2022-12-07T14:59:00;4.80;99.90
52513;DHT22;38422;53.172;6.974;2022-12-07T15:01:26;4.70;99.90
52513;DHT22;38422;53.172;6.974;2022-12-07T15:03:52;4.70;99.90
52513;DHT22;38422;53.172;6.974;2022-12-07T15:06:18;4.60;99.90
52513;DHT22;38422;53.172;6.974;2022-12-07T15:08:44;4.60;99.90
52513;DHT22;38422;53.172;6.974;2022-12-07T15:11:15;4.50;99.90
52513;DHT22;38422;53.172;6.974;2022-12-07T15:13:41;4.50;99.90
52513;DHT22;38422;53.172;6.974;2022-12-07T15:16:25;4.40;99.90
52513;DHT22;38422;53.172;6.974;2022-12-07T15:18:50;4.40;99.90
52513;DHT22;38422;53.172;6.974;2022-12-07T15:21:17;4.30;99.90
52513;DHT22;38422;53.172;6.974;2022-12-07T15:23:42;4.30;99.90
52513;DHT22;38422;53.172;6.974;2022-12-07T15:26:10;4.30;99.90
52513;DHT22;38422;53.172;6.974;2022-12-07T15:28:35;4.20;99.90
52513;DHT22;38422;53.172;6.974;2022-12-07T15:31:01;4.20;99.90
52513;DHT22;38422;53.172;6.974;2022-12-07T15:33:27;4.20;99.90
52513;DHT22;38422;53.172;6.974;2022-12-07T15:35:52;4.20;99.90
52513;DHT22;38422;53.172;6.974;2022-12-07T15:38:18;4.20;99.90
52513;DHT22;38422;53.172;6.974;2022-12-07T15:40:47;4.20;99.90
52513;DHT22;38422;53.172;6.974;2022-12-07T15:43:12;4.30;99.90
52513;DHT22;38422;53.172;6.974;2022-12-07T15:45:57;4.30;99.90
52513;DHT22;38422;53.172;6.974;2022-12-07T15:48:22;4.30;99.90
52513;DHT22;38422;53.172;6.974;2022-12-07T15:50:48;4.30;99.90
52513;DHT22;38422;53.172;6.974;2022-12-07T15:53:14;4.30;99.90
52513;DHT22;38422;53.172;6.974;2022-12-07T15:55:40;4.40;99.90
52513;DHT22;38422;53.172;6.974;2022-12-07T15:58:06;4.40;99.90
52513;DHT22;38422;53.172;6.974;2022-12-07T16:00:32;4.40;99.90
52513;DHT22;38422;53.172;6.974;2022-12-07T16:02:58;4.40;99.90
52513;DHT22;38422;53.172;6.974;2022-12-07T16:05:24;4.40;99.90
52513;DHT22;38422;53.172;6.974;2022-12-07T16:07:49;4.40;99.90
52513;DHT22;38422;53.172;6.974;2022-12-07T16:10:16;4.40;99.90
52513;DHT22;38422;53.172;6.974;2022-12-07T16:12:42;4.40;99.90
52513;DHT22;38422;53.172;6.974;2022-12-07T16:15:08;4.50;99.90
52513;DHT22;38422;53.172;6.974;2022-12-07T16:17:34;4.50;99.90
52513;DHT22;38422;53.172;6.974;2022-12-07T16:19:59;4.50;99.90
52513;DHT22;38422;53.172;6.974;2022-12-07T16:22:25;4.50;99.90
52513;DHT22;38422;53.172;6.974;2022-12-07T16:24:51;4.50;99.90
52513;DHT22;38422;53.172;6.974;2022-12-07T16:27:16;4.50;99.90
52513;DHT22;38422;53.172;6.974;2022-12-07T16:29:42;4.50;99.90
52513;DHT22;38422;53.172;6.974;2022-12-07T16:32:08;4.50;99.90
52513;DHT22;38422;53.172;6.974;2022-12-07T16:34:33;4.40;99.90
52513;DHT22;38422;53.172;6.974;2022-12-07T16:36:59;4.40;99.90
52513;DHT22;38422;53.172;6.974;2022-12-07T16:39:25;4.40;99.90
52513;DHT22;38422;53.172;6.974;2022-12-07T16:41:50;4.40;99.90
52513;DHT22;38422;53.172;6.974;2022-12-07T16:44:18;4.40;99.90
52513;DHT22;38422;53.172;6.974;2022-12-07T16:46:43;4.40;99.90
52513;DHT22;38422;53.172;6.974;2022-12-07T16:49:13;4.40;99.90
52513;DHT22;38422;53.172;6.974;2022-12-07T16:51:39;4.40;99.90
52513;DHT22;38422;53.172;6.974;2022-12-07T16:54:06;4.40;99.90
52513;DHT22;38422;53.172;6.974;2022-12-07T16:56:33;4.40;99.90
52513;DHT22;38422;53.172;6.974;2022-12-07T16:58:59;4.40;99.90
52513;DHT22;38422;53.172;6.974;2022-12-07T17:01:25;4.40;99.90
52513;DHT22;38422;53.172;6.974;2022-12-07T17:03:53;4.40;99.90
52513;DHT22;38422;53.172;6.974;2022-12-07T17:06:23;4.30;99.90
52513;DHT22;38422;53.172;6.974;2022-12-07T17:08:50;4.30;99.90
52513;DHT22;38422;53.172;6.974;2022-12-07T17:11:19;4.30;99.90
52513;DHT22;38422;53.172;6.974;2022-12-07T17:13:45;4.30;99.90
52513;DHT22;38422;53.172;6.974;2022-12-07T17:16:30;4.30;99.90
52513;DHT22;38422;53.172;6.974;2022-12-07T17:18:56;4.30;99.90
52513;DHT22;38422;53.172;6.974;2022-12-07T17:21:21;4.20;99.90
52513;DHT22;38422;53.172;6.974;2022-12-07T17:23:48;4.10;99.90
52513;DHT22;38422;53.172;6.974;2022-12-07T17:26:18;4.10;99.90
52513;DHT22;38422;53.172;6.974;2022-12-07T17:28:44;4.00;99.90
52513;DHT22;38422;53.172;6.974;2022-12-07T17:31:11;4.00;99.90
52513;DHT22;38422;53.172;6.974;2022-12-07T17:33:37;3.90;99.90
52513;DHT22;38422;53.172;6.974;2022-12-07T17:36:14;3.90;99.90
52513;DHT22;38422;53.172;6.974;2022-12-07T17:38:41;3.90;99.90
52513;DHT22;38422;53.172;6.974;2022-12-07T17:41:19;3.90;99.90
52513;DHT22;38422;53.172;6.974;2022-12-07T17:44:09;3.90;99.90
52513;DHT22;38422;53.172;6.974;2022-12-07T17:46:35;3.90;99.90